sensor_id;sensor_type;location;lat;lon;timestamp;P1;durP1;ratioP1;P2;durP2;ratioP2
7381;SDS011;3732;48.052;7.800;2022-08-16T00:02:12;3.50;;;3.17;;
7381;SDS011;3732;48.052;7.800;2022-08-16T00:04:40;4.00;;;3.40;;
7381;SDS011;3732;48.052;7.800;2022-08-16T00:07:07;3.93;;;3.30;;
7381;SDS011;3732;48.052;7.800;2022-08-16T00:09:35;3.73;;;3.43;;
7381;SDS011;3732;48.052;7.800;2022-08-16T00:12:03;3.93;;;3.37;;
7381;SDS011;3732;48.052;7.800;2022-08-16T00:14:32;5.13;;;3.57;;
7381;SDS011;3732;48.052;7.800;2022-08-16T00:16:59;4.20;;;3.27;;
7381;SDS011;3732;48.052;7.800;2022-08-16T00:19:29;3.70;;;3.40;;
7381;SDS011;3732;48.052;7.800;2022-08-16T00:21:57;4.10;;;3.80;;
7381;SDS011;3732;48.052;7.800;2022-08-16T00:24:24;4.43;;;3.57;;
7381;SDS011;3732;48.052;7.800;2022-08-16T00:26:53;4.50;;;3.40;;
7381;SDS011;3732;48.052;7.800;2022-08-16T00:29:24;4.00;;;3.20;;
7381;SDS011;3732;48.052;7.800;2022-08-16T00:31:51;3.90;;;3.57;;
7381;SDS011;3732;48.052;7.800;2022-08-16T00:34:19;4.07;;;3.67;;
7381;SDS011;3732;48.052;7.800;2022-08-16T00:36:47;4.20;;;3.73;;
7381;SDS011;3732;48.052;7.800;2022-08-16T00:39:15;4.80;;;3.70;;
7381;SDS011;3732;48.052;7.800;2022-08-16T00:41:43;4.07;;;3.70;;
7381;SDS011;3732;48.052;7.800;2022-08-16T00:44:12;4.93;;;4.33;;
7381;SDS011;3732;48.052;7.800;2022-08-16T00:46:41;6.07;;;3.93;;
7381;SDS011;3732;48.052;7.800;2022-08-16T00:49:11;3.93;;;3.53;;
7381;SDS011;3732;48.052;7.800;2022-08-16T00:51:39;6.07;;;4.27;;
7381;SDS011;3732;48.052;7.800;2022-08-16T00:54:06;4.83;;;4.00;;
7381;SDS011;3732;48.052;7.800;2022-08-16T00:56:36;4.70;;;4.20;;
7381;SDS011;3732;48.052;7.800;2022-08-16T00:59:04;4.77;;;4.37;;
7381;SDS011;3732;48.052;7.800;2022-08-16T01:01:33;4.63;;;4.10;;
7381;SDS011;3732;48.052;7.800;2022-08-16T01:04:00;4.30;;;3.90;;
7381;SDS011;3732;48.052;7.800;2022-08-16T01:06:28;4.53;;;3.97;;
7381;SDS011;3732;48.052;7.800;2022-08-16T01:08:55;7.80;;;4.60;;
7381;SDS011;3732;48.052;7.800;2022-08-16T01:11:23;5.43;;;4.20;;
7381;SDS011;3732;48.052;7.800;2022-08-16T01:13:52;6.57;;;4.53;;
7381;SDS011;3732;48.052;7.800;2022-08-16T01:16:22;4.50;;;4.10;;
7381;SDS011;3732;48.052;7.800;2022-08-16T01:18:52;5.93;;;4.27;;
7381;SDS011;3732;48.052;7.800;2022-08-16T01:21:24;6.23;;;4.40;;
7381;SDS011;3732;48.052;7.800;2022-08-16T01:23:58;7.37;;;4.30;;
7381;SDS011;3732;48.052;7.800;2022-08-16T01:26:26;4.93;;;4.07;;
7381;SDS011;3732;48.052;7.800;2022-08-16T01:28:55;6.63;;;4.57;;
7381;SDS011;3732;48.052;7.800;2022-08-16T01:31:22;4.90;;;4.50;;
7381;SDS011;3732;48.052;7.800;2022-08-16T01:33:50;4.93;;;4.37;;
7381;SDS011;3732;48.052;7.800;2022-08-16T01:36:17;5.83;;;4.70;;
7381;SDS011;3732;48.052;7.800;2022-08-16T01:38:45;4.83;;;4.00;;
7381;SDS011;3732;48.052;7.800;2022-08-16T01:41:16;5.20;;;4.70;;
7381;SDS011;3732;48.052;7.800;2022-08-16T01:43:44;8.37;;;4.83;;
7381;SDS011;3732;48.052;7.800;2022-08-16T01:46:18;5.27;;;4.40;;
7381;SDS011;3732;48.052;7.800;2022-08-16T01:48:46;5.97;;;4.60;;
7381;SDS011;3732;48.052;7.800;2022-08-16T01:51:13;6.00;;;4.27;;
7381;SDS011;3732;48.052;7.800;2022-08-16T01:53:42;5.73;;;5.17;;
7381;SDS011;3732;48.052;7.800;2022-08-16T01:56:09;7.47;;;4.90;;
7381;SDS011;3732;48.052;7.800;2022-08-16T01:58:38;5.00;;;4.50;;
7381;SDS011;3732;48.052;7.800;2022-08-16T02:01:05;4.93;;;4.43;;
7381;SDS011;3732;48.052;7.800;2022-08-16T02:03:33;4.63;;;4.23;;
7381;SDS011;3732;48.052;7.800;2022-08-16T02:06:00;5.00;;;4.50;;
7381;SDS011;3732;48.052;7.800;2022-08-16T02:08:27;4.77;;;4.27;;
7381;SDS011;3732;48.052;7.800;2022-08-16T02:10:54;5.83;;;4.83;;
7381;SDS011;3732;48.052;7.800;2022-08-16T02:13:22;4.63;;;4.13;;
7381;SDS011;3732;48.052;7.800;2022-08-16T02:15:51;5.33;;;4.17;;
7381;SDS011;3732;48.052;7.800;2022-08-16T02:18:18;6.73;;;4.43;;
7381;SDS011;3732;48.052;7.800;2022-08-16T02:20:46;5.20;;;4.40;;
7381;SDS011;3732;48.052;7.800;2022-08-16T02:23:15;5.23;;;4.17;;
7381;SDS011;3732;48.052;7.800;2022-08-16T02:25:43;5.00;;;4.50;;
7381;SDS011;3732;48.052;7.800;2022-08-16T02:28:11;8.90;;;4.50;;
7381;SDS011;3732;48.052;7.800;2022-08-16T02:30:39;4.93;;;4.43;;
7381;SDS011;3732;48.052;7.800;2022-08-16T02:33:08;5.33;;;4.47;;
7381;SDS011;3732;48.052;7.800;2022-08-16T02:35:36;4.77;;;4.37;;
7381;SDS011;3732;48.052;7.800;2022-08-16T02:38:03;6.40;;;5.00;;
7381;SDS011;3732;48.052;7.800;2022-08-16T02:40:31;7.83;;;5.20;;
7381;SDS011;3732;48.052;7.800;2022-08-16T02:42:58;8.77;;;5.10;;
7381;SDS011;3732;48.052;7.800;2022-08-16T02:45:26;5.00;;;4.50;;
7381;SDS011;3732;48.052;7.800;2022-08-16T02:47:54;5.07;;;4.57;;
7381;SDS011;3732;48.052;7.800;2022-08-16T02:50:22;6.73;;;5.00;;
7381;SDS011;3732;48.052;7.800;2022-08-16T02:52:50;5.13;;;4.70;;
7381;SDS011;3732;48.052;7.800;2022-08-16T02:55:17;6.97;;;4.77;;
7381;SDS011;3732;48.052;7.800;2022-08-16T02:57:45;5.00;;;4.60;;
7381;SDS011;3732;48.052;7.800;2022-08-16T03:00:12;5.73;;;5.03;;
7381;SDS011;3732;48.052;7.800;2022-08-16T03:02:43;6.57;;;5.73;;
7381;SDS011;3732;48.052;7.800;2022-08-16T03:05:11;6.90;;;5.50;;
7381;SDS011;3732;48.052;7.800;2022-08-16T03:07:40;6.80;;;5.40;;
7381;SDS011;3732;48.052;7.800;2022-08-16T03:10:09;7.07;;;5.60;;
7381;SDS011;3732;48.052;7.800;2022-08-16T03:12:37;8.30;;;6.40;;
7381;SDS011;3732;48.052;7.800;2022-08-16T03:15:05;10.13;;;6.67;;
7381;SDS011;3732;48.052;7.800;2022-08-16T03:17:32;7.57;;;6.13;;
7381;SDS011;3732;48.052;7.800;2022-08-16T03:19:59;9.30;;;6.73;;
7381;SDS011;3732;48.052;7.800;2022-08-16T03:22:26;7.97;;;6.43;;
7381;SDS011;3732;48.052;7.800;2022-08-16T03:24:56;9.07;;;5.87;;
7381;SDS011;3732;48.052;7.800;2022-08-16T03:27:23;8.50;;;5.87;;
7381;SDS011;3732;48.052;7.800;2022-08-16T03:29:51;6.90;;;6.17;;
7381;SDS011;3732;48.052;7.800;2022-08-16T03:32:18;8.57;;;5.90;;
7381;SDS011;3732;48.052;7.800;2022-08-16T03:34:45;6.83;;;6.17;;
7381;SDS011;3732;48.052;7.800;2022-08-16T03:37:13;7.07;;;5.77;;
7381;SDS011;3732;48.052;7.800;2022-08-16T03:39:40;7.80;;;5.97;;
7381;SDS011;3732;48.052;7.800;2022-08-16T03:42:09;6.77;;;5.40;;
7381;SDS011;3732;48.052;7.800;2022-08-16T03:44:36;9.53;;;6.20;;
7381;SDS011;3732;48.052;7.800;2022-08-16T03:47:03;6.70;;;6.00;;
7381;SDS011;3732;48.052;7.800;2022-08-16T03:49:30;8.03;;;5.63;;
7381;SDS011;3732;48.052;7.800;2022-08-16T03:51:59;8.03;;;5.90;;
7381;SDS011;3732;48.052;7.800;2022-08-16T03:54:26;7.07;;;6.37;;
7381;SDS011;3732;48.052;7.800;2022-08-16T03:56:53;6.30;;;5.70;;
7381;SDS011;3732;48.052;7.800;2022-08-16T03:59:21;11.53;;;6.50;;
7381;SDS011;3732;48.052;7.800;2022-08-16T04:01:49;6.43;;;5.70;;
7381;SDS011;3732;48.052;7.800;2022-08-16T04:04:16;6.37;;;5.77;;
7381;SDS011;3732;48.052;7.800;2022-08-16T04:06:43;7.03;;;6.33;;
7381;SDS011;3732;48.052;7.800;2022-08-16T04:09:10;8.37;;;6.23;;
7381;SDS011;3732;48.052;7.800;2022-08-16T04:11:38;6.03;;;5.43;;
7381;SDS011;3732;48.052;7.800;2022-08-16T04:14:05;6.50;;;5.90;;
7381;SDS011;3732;48.052;7.800;2022-08-16T04:16:34;6.20;;;5.47;;
7381;SDS011;3732;48.052;7.800;2022-08-16T04:19:01;6.77;;;6.07;;
7381;SDS011;3732;48.052;7.800;2022-08-16T04:21:29;8.17;;;6.00;;
7381;SDS011;3732;48.052;7.800;2022-08-16T04:23:56;6.90;;;5.87;;
7381;SDS011;3732;48.052;7.800;2022-08-16T04:26:23;6.40;;;5.80;;
7381;SDS011;3732;48.052;7.800;2022-08-16T04:28:50;6.50;;;5.90;;
7381;SDS011;3732;48.052;7.800;2022-08-16T04:31:17;7.23;;;6.00;;
7381;SDS011;3732;48.052;7.800;2022-08-16T04:33:46;7.03;;;6.17;;
7381;SDS011;3732;48.052;7.800;2022-08-16T04:36:13;7.80;;;5.80;;
7381;SDS011;3732;48.052;7.800;2022-08-16T04:38:41;8.40;;;6.40;;
7381;SDS011;3732;48.052;7.800;2022-08-16T04:41:08;8.33;;;6.93;;
7381;SDS011;3732;48.052;7.800;2022-08-16T04:43:35;7.70;;;6.90;;
7381;SDS011;3732;48.052;7.800;2022-08-16T04:46:03;9.77;;;7.03;;
7381;SDS011;3732;48.052;7.800;2022-08-16T04:48:30;10.03;;;6.90;;
7381;SDS011;3732;48.052;7.800;2022-08-16T04:50:59;7.57;;;6.50;;
7381;SDS011;3732;48.052;7.800;2022-08-16T04:53:26;7.10;;;6.40;;
7381;SDS011;3732;48.052;7.800;2022-08-16T04:55:53;7.40;;;6.70;;
7381;SDS011;3732;48.052;7.800;2022-08-16T04:58:21;7.83;;;7.03;;
7381;SDS011;3732;48.052;7.800;2022-08-16T05:00:48;7.70;;;6.90;;
7381;SDS011;3732;48.052;7.800;2022-08-16T05:03:15;8.40;;;7.60;;
7381;SDS011;3732;48.052;7.800;2022-08-16T05:05:43;8.03;;;7.23;;
7381;SDS011;3732;48.052;7.800;2022-08-16T05:08:11;7.70;;;7.00;;
7381;SDS011;3732;48.052;7.800;2022-08-16T05:10:39;8.70;;;6.77;;
7381;SDS011;3732;48.052;7.800;2022-08-16T05:13:06;7.30;;;6.67;;
7381;SDS011;3732;48.052;7.800;2022-08-16T05:15:34;9.03;;;7.33;;
7381;SDS011;3732;48.052;7.800;2022-08-16T05:18:02;7.37;;;6.67;;
7381;SDS011;3732;48.052;7.800;2022-08-16T05:20:30;7.50;;;6.80;;
7381;SDS011;3732;48.052;7.800;2022-08-16T05:22:57;6.87;;;6.23;;
7381;SDS011;3732;48.052;7.800;2022-08-16T05:25:26;7.63;;;6.70;;
7381;SDS011;3732;48.052;7.800;2022-08-16T05:27:53;8.97;;;7.10;;
7381;SDS011;3732;48.052;7.800;2022-08-16T05:30:23;8.00;;;7.13;;
7381;SDS011;3732;48.052;7.800;2022-08-16T05:32:51;7.43;;;6.70;;
7381;SDS011;3732;48.052;7.800;2022-08-16T05:35:18;7.53;;;6.83;;
7381;SDS011;3732;48.052;7.800;2022-08-16T05:37:45;8.10;;;7.30;;
7381;SDS011;3732;48.052;7.800;2022-08-16T05:40:13;8.03;;;7.23;;
7381;SDS011;3732;48.052;7.800;2022-08-16T05:42:42;7.60;;;6.40;;
7381;SDS011;3732;48.052;7.800;2022-08-16T05:45:09;10.37;;;6.67;;
7381;SDS011;3732;48.052;7.800;2022-08-16T05:47:37;6.90;;;6.20;;
7381;SDS011;3732;48.052;7.800;2022-08-16T05:50:07;6.33;;;5.70;;
7381;SDS011;3732;48.052;7.800;2022-08-16T05:52:34;6.30;;;5.60;;
7381;SDS011;3732;48.052;7.800;2022-08-16T05:55:02;6.20;;;4.90;;
7381;SDS011;3732;48.052;7.800;2022-08-16T05:57:29;5.10;;;4.70;;
7381;SDS011;3732;48.052;7.800;2022-08-16T06:00:00;5.30;;;4.80;;
7381;SDS011;3732;48.052;7.800;2022-08-16T06:02:28;4.80;;;4.40;;
7381;SDS011;3732;48.052;7.800;2022-08-16T06:04:57;5.20;;;4.13;;
7381;SDS011;3732;48.052;7.800;2022-08-16T06:07:24;4.70;;;3.73;;
7381;SDS011;3732;48.052;7.800;2022-08-16T06:09:51;4.43;;;3.90;;
7381;SDS011;3732;48.052;7.800;2022-08-16T06:12:20;5.03;;;4.20;;
7381;SDS011;3732;48.052;7.800;2022-08-16T06:14:47;5.77;;;4.57;;
7381;SDS011;3732;48.052;7.800;2022-08-16T06:17:16;4.80;;;3.60;;
7381;SDS011;3732;48.052;7.800;2022-08-16T06:19:43;3.90;;;3.50;;
7381;SDS011;3732;48.052;7.800;2022-08-16T06:22:13;6.13;;;3.90;;
7381;SDS011;3732;48.052;7.800;2022-08-16T06:24:42;4.40;;;3.70;;
7381;SDS011;3732;48.052;7.800;2022-08-16T06:27:10;4.07;;;3.60;;
7381;SDS011;3732;48.052;7.800;2022-08-16T06:29:38;3.73;;;3.40;;
7381;SDS011;3732;48.052;7.800;2022-08-16T06:32:05;3.77;;;3.47;;
7381;SDS011;3732;48.052;7.800;2022-08-16T06:34:34;4.00;;;3.50;;
7381;SDS011;3732;48.052;7.800;2022-08-16T06:37:01;4.83;;;3.60;;
7381;SDS011;3732;48.052;7.800;2022-08-16T06:39:28;5.90;;;3.23;;
7381;SDS011;3732;48.052;7.800;2022-08-16T06:48:03;3.73;;;3.43;;
7381;SDS011;3732;48.052;7.800;2022-08-16T06:50:32;4.67;;;3.47;;
7381;SDS011;3732;48.052;7.800;2022-08-16T06:52:59;5.80;;;4.00;;
7381;SDS011;3732;48.052;7.800;2022-08-16T06:55:27;5.50;;;3.93;;
7381;SDS011;3732;48.052;7.800;2022-08-16T06:57:55;5.67;;;3.80;;
7381;SDS011;3732;48.052;7.800;2022-08-16T07:00:22;5.97;;;3.27;;
7381;SDS011;3732;48.052;7.800;2022-08-16T07:02:50;5.67;;;3.60;;
7381;SDS011;3732;48.052;7.800;2022-08-16T07:05:18;4.47;;;3.17;;
7381;SDS011;3732;48.052;7.800;2022-08-16T07:07:47;4.00;;;3.60;;
7381;SDS011;3732;48.052;7.800;2022-08-16T07:10:16;3.70;;;3.30;;
7381;SDS011;3732;48.052;7.800;2022-08-16T07:12:47;5.37;;;3.20;;
7381;SDS011;3732;48.052;7.800;2022-08-16T07:15:15;5.20;;;3.07;;
7381;SDS011;3732;48.052;7.800;2022-08-16T07:17:43;3.40;;;3.10;;
7381;SDS011;3732;48.052;7.800;2022-08-16T07:20:10;3.37;;;3.07;;
7381;SDS011;3732;48.052;7.800;2022-08-16T07:22:38;3.87;;;3.17;;
7381;SDS011;3732;48.052;7.800;2022-08-16T07:25:08;5.50;;;3.47;;
7381;SDS011;3732;48.052;7.800;2022-08-16T07:27:36;3.57;;;3.27;;
7381;SDS011;3732;48.052;7.800;2022-08-16T07:30:05;3.77;;;3.30;;
7381;SDS011;3732;48.052;7.800;2022-08-16T07:32:33;4.00;;;3.23;;
7381;SDS011;3732;48.052;7.800;2022-08-16T07:35:01;4.17;;;2.97;;
7381;SDS011;3732;48.052;7.800;2022-08-16T07:37:28;4.13;;;2.90;;
7381;SDS011;3732;48.052;7.800;2022-08-16T07:39:55;4.03;;;2.90;;
7381;SDS011;3732;48.052;7.800;2022-08-16T07:42:24;3.13;;;2.83;;
7381;SDS011;3732;48.052;7.800;2022-08-16T07:44:51;3.17;;;2.80;;
7381;SDS011;3732;48.052;7.800;2022-08-16T07:47:19;3.73;;;3.00;;
7381;SDS011;3732;48.052;7.800;2022-08-16T07:49:46;6.77;;;3.03;;
7381;SDS011;3732;48.052;7.800;2022-08-16T07:52:13;2.77;;;2.57;;
7381;SDS011;3732;48.052;7.800;2022-08-16T07:54:41;4.73;;;2.80;;
7381;SDS011;3732;48.052;7.800;2022-08-16T07:57:08;3.70;;;3.23;;
7381;SDS011;3732;48.052;7.800;2022-08-16T07:59:37;3.10;;;2.77;;
7381;SDS011;3732;48.052;7.800;2022-08-16T08:02:05;4.53;;;3.07;;
7381;SDS011;3732;48.052;7.800;2022-08-16T08:04:32;3.90;;;2.57;;
7381;SDS011;3732;48.052;7.800;2022-08-16T08:06:59;3.90;;;2.90;;
7381;SDS011;3732;48.052;7.800;2022-08-16T08:09:27;3.50;;;2.83;;
7381;SDS011;3732;48.052;7.800;2022-08-16T08:11:55;4.67;;;2.93;;
7381;SDS011;3732;48.052;7.800;2022-08-16T08:14:22;4.20;;;2.60;;
7381;SDS011;3732;48.052;7.800;2022-08-16T08:16:50;3.37;;;2.60;;
7381;SDS011;3732;48.052;7.800;2022-08-16T08:19:18;4.20;;;2.63;;
7381;SDS011;3732;48.052;7.800;2022-08-16T08:21:45;5.57;;;3.00;;
7381;SDS011;3732;48.052;7.800;2022-08-16T08:24:12;3.27;;;2.50;;
7381;SDS011;3732;48.052;7.800;2022-08-16T08:26:40;7.73;;;4.03;;
7381;SDS011;3732;48.052;7.800;2022-08-16T08:29:07;3.53;;;2.80;;
7381;SDS011;3732;48.052;7.800;2022-08-16T08:31:34;3.63;;;2.60;;
7381;SDS011;3732;48.052;7.800;2022-08-16T08:34:04;5.77;;;2.70;;
7381;SDS011;3732;48.052;7.800;2022-08-16T08:36:32;5.30;;;2.80;;
7381;SDS011;3732;48.052;7.800;2022-08-16T08:38:59;5.77;;;3.17;;
7381;SDS011;3732;48.052;7.800;2022-08-16T08:41:27;4.70;;;2.80;;
7381;SDS011;3732;48.052;7.800;2022-08-16T08:43:54;4.20;;;2.67;;
7381;SDS011;3732;48.052;7.800;2022-08-16T08:46:22;3.00;;;2.70;;
7381;SDS011;3732;48.052;7.800;2022-08-16T08:48:50;5.73;;;3.03;;
7381;SDS011;3732;48.052;7.800;2022-08-16T08:51:19;4.47;;;3.00;;
7381;SDS011;3732;48.052;7.800;2022-08-16T08:53:47;4.27;;;2.73;;
7381;SDS011;3732;48.052;7.800;2022-08-16T08:56:15;3.17;;;2.73;;
7381;SDS011;3732;48.052;7.800;2022-08-16T08:58:42;3.40;;;3.10;;
7381;SDS011;3732;48.052;7.800;2022-08-16T09:01:09;3.67;;;2.93;;
7381;SDS011;3732;48.052;7.800;2022-08-16T09:03:37;5.83;;;2.93;;
7381;SDS011;3732;48.052;7.800;2022-08-16T09:06:05;5.13;;;2.93;;
7381;SDS011;3732;48.052;7.800;2022-08-16T09:08:34;3.33;;;2.90;;
7381;SDS011;3732;48.052;7.800;2022-08-16T09:11:03;3.13;;;2.80;;
7381;SDS011;3732;48.052;7.800;2022-08-16T09:13:30;5.67;;;2.77;;
7381;SDS011;3732;48.052;7.800;2022-08-16T09:15:58;4.50;;;2.70;;
7381;SDS011;3732;48.052;7.800;2022-08-16T09:18:25;4.20;;;2.83;;
7381;SDS011;3732;48.052;7.800;2022-08-16T09:20:53;3.77;;;2.70;;
7381;SDS011;3732;48.052;7.800;2022-08-16T09:23:21;4.20;;;2.60;;
7381;SDS011;3732;48.052;7.800;2022-08-16T09:25:51;6.73;;;3.40;;
7381;SDS011;3732;48.052;7.800;2022-08-16T09:28:18;4.70;;;2.87;;
7381;SDS011;3732;48.052;7.800;2022-08-16T09:30:46;3.77;;;3.03;;
7381;SDS011;3732;48.052;7.800;2022-08-16T09:33:14;3.17;;;2.70;;
7381;SDS011;3732;48.052;7.800;2022-08-16T09:35:42;5.50;;;3.03;;
7381;SDS011;3732;48.052;7.800;2022-08-16T09:38:10;4.83;;;3.07;;
7381;SDS011;3732;48.052;7.800;2022-08-16T09:40:38;4.33;;;3.07;;
7381;SDS011;3732;48.052;7.800;2022-08-16T09:43:08;5.00;;;3.20;;
7381;SDS011;3732;48.052;7.800;2022-08-16T09:45:35;3.90;;;3.33;;
7381;SDS011;3732;48.052;7.800;2022-08-16T09:48:05;4.30;;;3.20;;
7381;SDS011;3732;48.052;7.800;2022-08-16T09:50:36;4.97;;;3.30;;
7381;SDS011;3732;48.052;7.800;2022-08-16T09:53:06;3.87;;;3.03;;
7381;SDS011;3732;48.052;7.800;2022-08-16T09:55:34;6.07;;;3.33;;
7381;SDS011;3732;48.052;7.800;2022-08-16T09:58:01;3.20;;;2.90;;
7381;SDS011;3732;48.052;7.800;2022-08-16T10:00:29;4.03;;;3.20;;
7381;SDS011;3732;48.052;7.800;2022-08-16T10:02:57;5.57;;;3.60;;
7381;SDS011;3732;48.052;7.800;2022-08-16T10:05:24;3.10;;;2.80;;
7381;SDS011;3732;48.052;7.800;2022-08-16T10:07:51;3.80;;;3.17;;
7381;SDS011;3732;48.052;7.800;2022-08-16T10:10:19;4.00;;;2.93;;
7381;SDS011;3732;48.052;7.800;2022-08-16T10:12:46;4.53;;;3.17;;
7381;SDS011;3732;48.052;7.800;2022-08-16T10:15:35;5.10;;;3.20;;
7381;SDS011;3732;48.052;7.800;2022-08-16T10:18:03;3.80;;;3.40;;
7381;SDS011;3732;48.052;7.800;2022-08-16T10:20:32;4.97;;;3.33;;
7381;SDS011;3732;48.052;7.800;2022-08-16T10:23:00;5.73;;;3.10;;
7381;SDS011;3732;48.052;7.800;2022-08-16T10:25:27;4.10;;;3.53;;
7381;SDS011;3732;48.052;7.800;2022-08-16T10:27:54;3.93;;;3.03;;
7381;SDS011;3732;48.052;7.800;2022-08-16T10:30:22;3.77;;;3.00;;
7381;SDS011;3732;48.052;7.800;2022-08-16T10:32:50;4.30;;;3.00;;
7381;SDS011;3732;48.052;7.800;2022-08-16T10:35:18;4.33;;;2.70;;
7381;SDS011;3732;48.052;7.800;2022-08-16T10:37:45;5.77;;;3.00;;
7381;SDS011;3732;48.052;7.800;2022-08-16T10:40:12;4.23;;;2.77;;
7381;SDS011;3732;48.052;7.800;2022-08-16T10:42:39;3.40;;;2.50;;
7381;SDS011;3732;48.052;7.800;2022-08-16T10:45:07;3.17;;;2.87;;
7381;SDS011;3732;48.052;7.800;2022-08-16T10:47:35;3.60;;;2.93;;
7381;SDS011;3732;48.052;7.800;2022-08-16T10:50:04;3.17;;;2.87;;
7381;SDS011;3732;48.052;7.800;2022-08-16T10:52:32;4.50;;;3.07;;
7381;SDS011;3732;48.052;7.800;2022-08-16T10:55:00;4.47;;;3.27;;
7381;SDS011;3732;48.052;7.800;2022-08-16T10:57:27;5.17;;;3.20;;
7381;SDS011;3732;48.052;7.800;2022-08-16T10:59:56;4.87;;;3.13;;
7381;SDS011;3732;48.052;7.800;2022-08-16T11:02:23;4.17;;;2.90;;
7381;SDS011;3732;48.052;7.800;2022-08-16T11:04:51;4.57;;;2.70;;
7381;SDS011;3732;48.052;7.800;2022-08-16T11:07:20;4.07;;;2.73;;
7381;SDS011;3732;48.052;7.800;2022-08-16T11:09:47;4.93;;;2.80;;
7381;SDS011;3732;48.052;7.800;2022-08-16T11:12:14;3.10;;;2.80;;
7381;SDS011;3732;48.052;7.800;2022-08-16T11:14:42;4.20;;;2.83;;
7381;SDS011;3732;48.052;7.800;2022-08-16T11:17:09;3.47;;;2.70;;
7381;SDS011;3732;48.052;7.800;2022-08-16T11:19:37;2.77;;;2.57;;
7381;SDS011;3732;48.052;7.800;2022-08-16T11:22:06;2.90;;;2.40;;
7381;SDS011;3732;48.052;7.800;2022-08-16T11:24:35;2.87;;;2.60;;
7381;SDS011;3732;48.052;7.800;2022-08-16T11:27:04;3.13;;;2.70;;
7381;SDS011;3732;48.052;7.800;2022-08-16T11:29:32;4.17;;;2.73;;
7381;SDS011;3732;48.052;7.800;2022-08-16T11:31:59;3.10;;;2.60;;
7381;SDS011;3732;48.052;7.800;2022-08-16T11:34:29;4.10;;;2.73;;
7381;SDS011;3732;48.052;7.800;2022-08-16T11:36:57;4.73;;;2.90;;
7381;SDS011;3732;48.052;7.800;2022-08-16T11:39:25;3.07;;;2.60;;
7381;SDS011;3732;48.052;7.800;2022-08-16T11:41:53;4.63;;;2.73;;
7381;SDS011;3732;48.052;7.800;2022-08-16T11:44:21;3.40;;;2.67;;
7381;SDS011;3732;48.052;7.800;2022-08-16T11:46:48;4.07;;;3.10;;
7381;SDS011;3732;48.052;7.800;2022-08-16T11:49:15;3.03;;;2.57;;
7381;SDS011;3732;48.052;7.800;2022-08-16T11:51:43;2.50;;;2.30;;
7381;SDS011;3732;48.052;7.800;2022-08-16T11:54:10;2.93;;;2.53;;
7381;SDS011;3732;48.052;7.800;2022-08-16T11:56:37;2.90;;;2.60;;
7381;SDS011;3732;48.052;7.800;2022-08-16T11:59:06;2.83;;;2.63;;
7381;SDS011;3732;48.052;7.800;2022-08-16T12:01:34;2.80;;;2.40;;
7381;SDS011;3732;48.052;7.800;2022-08-16T12:04:01;4.03;;;2.50;;
7381;SDS011;3732;48.052;7.800;2022-08-16T12:06:29;3.77;;;2.30;;
7381;SDS011;3732;48.052;7.800;2022-08-16T12:08:56;2.43;;;2.20;;
7381;SDS011;3732;48.052;7.800;2022-08-16T12:11:25;3.13;;;2.27;;
7381;SDS011;3732;48.052;7.800;2022-08-16T12:13:52;4.27;;;2.33;;
7381;SDS011;3732;48.052;7.800;2022-08-16T12:16:21;6.13;;;2.40;;
7381;SDS011;3732;48.052;7.800;2022-08-16T12:18:48;2.80;;;2.17;;
7381;SDS011;3732;48.052;7.800;2022-08-16T12:21:15;2.70;;;2.50;;
7381;SDS011;3732;48.052;7.800;2022-08-16T12:23:43;4.37;;;2.47;;
7381;SDS011;3732;48.052;7.800;2022-08-16T12:26:10;3.17;;;2.20;;
7381;SDS011;3732;48.052;7.800;2022-08-16T12:28:37;3.43;;;2.40;;
7381;SDS011;3732;48.052;7.800;2022-08-16T12:31:05;3.43;;;2.37;;
7381;SDS011;3732;48.052;7.800;2022-08-16T12:33:33;2.37;;;2.13;;
7381;SDS011;3732;48.052;7.800;2022-08-16T12:36:02;2.53;;;2.33;;
7381;SDS011;3732;48.052;7.800;2022-08-16T12:38:29;4.00;;;2.37;;
7381;SDS011;3732;48.052;7.800;2022-08-16T12:40:56;2.60;;;2.40;;
7381;SDS011;3732;48.052;7.800;2022-08-16T12:43:25;4.17;;;2.57;;
7381;SDS011;3732;48.052;7.800;2022-08-16T12:45:54;2.70;;;2.50;;
7381;SDS011;3732;48.052;7.800;2022-08-16T12:48:25;3.03;;;2.17;;
7381;SDS011;3732;48.052;7.800;2022-08-16T12:51:12;3.83;;;2.50;;
7381;SDS011;3732;48.052;7.800;2022-08-16T12:53:43;2.93;;;2.10;;
7381;SDS011;3732;48.052;7.800;2022-08-16T12:56:11;2.33;;;2.13;;
7381;SDS011;3732;48.052;7.800;2022-08-16T12:58:39;2.60;;;2.20;;
7381;SDS011;3732;48.052;7.800;2022-08-16T13:01:09;3.30;;;2.00;;
7381;SDS011;3732;48.052;7.800;2022-08-16T13:03:36;3.03;;;2.50;;
7381;SDS011;3732;48.052;7.800;2022-08-16T13:06:05;5.50;;;2.50;;
7381;SDS011;3732;48.052;7.800;2022-08-16T13:08:34;4.10;;;2.10;;
7381;SDS011;3732;48.052;7.800;2022-08-16T13:11:02;5.67;;;2.40;;
7381;SDS011;3732;48.052;7.800;2022-08-16T13:13:29;2.50;;;2.30;;
7381;SDS011;3732;48.052;7.800;2022-08-16T13:16:00;4.50;;;2.13;;
7381;SDS011;3732;48.052;7.800;2022-08-16T13:18:27;3.13;;;2.27;;
7381;SDS011;3732;48.052;7.800;2022-08-16T13:20:55;2.70;;;2.30;;
7381;SDS011;3732;48.052;7.800;2022-08-16T13:23:22;3.50;;;2.23;;
7381;SDS011;3732;48.052;7.800;2022-08-16T13:25:51;4.37;;;2.37;;
7381;SDS011;3732;48.052;7.800;2022-08-16T13:28:21;2.13;;;2.03;;
7381;SDS011;3732;48.052;7.800;2022-08-16T13:30:50;4.97;;;2.10;;
7381;SDS011;3732;48.052;7.800;2022-08-16T13:33:18;2.40;;;2.20;;
7381;SDS011;3732;48.052;7.800;2022-08-16T13:35:47;4.33;;;2.40;;
7381;SDS011;3732;48.052;7.800;2022-08-16T13:38:16;2.50;;;2.30;;
7381;SDS011;3732;48.052;7.800;2022-08-16T13:40:43;3.87;;;2.07;;
7381;SDS011;3732;48.052;7.800;2022-08-16T13:43:12;3.17;;;2.60;;
7381;SDS011;3732;48.052;7.800;2022-08-16T13:45:39;2.37;;;2.10;;
7381;SDS011;3732;48.052;7.800;2022-08-16T13:48:06;4.13;;;2.30;;
7381;SDS011;3732;48.052;7.800;2022-08-16T13:50:34;2.10;;;1.90;;
7381;SDS011;3732;48.052;7.800;2022-08-16T13:53:01;2.47;;;2.10;;
7381;SDS011;3732;48.052;7.800;2022-08-16T13:55:29;3.60;;;2.30;;
7381;SDS011;3732;48.052;7.800;2022-08-16T13:57:57;3.50;;;2.20;;
7381;SDS011;3732;48.052;7.800;2022-08-16T14:00:25;3.27;;;2.30;;
7381;SDS011;3732;48.052;7.800;2022-08-16T14:02:53;5.97;;;2.50;;
7381;SDS011;3732;48.052;7.800;2022-08-16T14:05:20;2.53;;;2.30;;
7381;SDS011;3732;48.052;7.800;2022-08-16T14:07:48;2.57;;;2.30;;
7381;SDS011;3732;48.052;7.800;2022-08-16T14:10:15;3.33;;;2.27;;
7381;SDS011;3732;48.052;7.800;2022-08-16T14:12:43;2.70;;;2.30;;
7381;SDS011;3732;48.052;7.800;2022-08-16T14:15:11;3.40;;;2.80;;
7381;SDS011;3732;48.052;7.800;2022-08-16T14:17:41;2.77;;;2.37;;
7381;SDS011;3732;48.052;7.800;2022-08-16T14:20:08;2.60;;;2.40;;
7381;SDS011;3732;48.052;7.800;2022-08-16T14:22:37;2.80;;;2.53;;
7381;SDS011;3732;48.052;7.800;2022-08-16T14:25:05;3.10;;;2.00;;
7381;SDS011;3732;48.052;7.800;2022-08-16T14:27:34;2.73;;;2.13;;
7381;SDS011;3732;48.052;7.800;2022-08-16T14:30:02;3.67;;;1.90;;
7381;SDS011;3732;48.052;7.800;2022-08-16T14:32:30;2.67;;;2.13;;
7381;SDS011;3732;48.052;7.800;2022-08-16T14:35:00;3.83;;;2.60;;
7381;SDS011;3732;48.052;7.800;2022-08-16T14:37:27;2.50;;;2.30;;
7381;SDS011;3732;48.052;7.800;2022-08-16T14:39:54;3.10;;;2.30;;
7381;SDS011;3732;48.052;7.800;2022-08-16T14:42:22;2.60;;;2.40;;
7381;SDS011;3732;48.052;7.800;2022-08-16T14:44:50;2.87;;;2.10;;
7381;SDS011;3732;48.052;7.800;2022-08-16T14:47:17;2.63;;;2.30;;
7381;SDS011;3732;48.052;7.800;2022-08-16T14:49:44;2.40;;;2.20;;
7381;SDS011;3732;48.052;7.800;2022-08-16T14:52:14;2.73;;;2.20;;
7381;SDS011;3732;48.052;7.800;2022-08-16T14:54:42;2.40;;;2.20;;
7381;SDS011;3732;48.052;7.800;2022-08-16T14:57:09;2.40;;;2.20;;
7381;SDS011;3732;48.052;7.800;2022-08-16T14:59:37;2.30;;;2.10;;
7381;SDS011;3732;48.052;7.800;2022-08-16T15:02:07;4.03;;;2.37;;
7381;SDS011;3732;48.052;7.800;2022-08-16T15:04:36;5.33;;;2.23;;
7381;SDS011;3732;48.052;7.800;2022-08-16T15:07:03;3.90;;;2.53;;
7381;SDS011;3732;48.052;7.800;2022-08-16T15:09:32;3.83;;;2.17;;
7381;SDS011;3732;48.052;7.800;2022-08-16T15:12:04;2.40;;;2.20;;
7381;SDS011;3732;48.052;7.800;2022-08-16T15:14:31;2.80;;;2.33;;
7381;SDS011;3732;48.052;7.800;2022-08-16T15:16:58;2.77;;;2.20;;
7381;SDS011;3732;48.052;7.800;2022-08-16T15:19:26;4.13;;;2.40;;
7381;SDS011;3732;48.052;7.800;2022-08-16T15:21:54;2.83;;;2.30;;
7381;SDS011;3732;48.052;7.800;2022-08-16T15:24:21;4.43;;;2.50;;
7381;SDS011;3732;48.052;7.800;2022-08-16T15:26:50;3.37;;;2.20;;